Time;durP1;ratioP1;P1;durP2;ratioP2;P2;SDS_P1;SDS_P2;PMS_P1;PMS_P2;Temp;Humidity;BMP_temperature;BMP_pressure;BME280_temperature;BME280_humidity;BME280_pressure;Samples;Min_cycle;Max_cycle;Signal;HPM_P1;HPM_P2
2022/07/27 06:29:33;;;;;;;3.60;0.60;;;20.20;61.00;;;;;;4842218;29;20405;-73
2022/07/27 06:31:59;;;;;;;4.88;0.63;;;20.20;61.20;;;;;;4857461;29;20314;-73
2022/07/27 06:34:25;;;;;;;6.03;0.80;;;20.30;61.20;;;;;;4848879;29;20445;-72
2022/07/27 06:36:51;;;;;;;2.78;0.70;;;20.30;60.80;;;;;;4856783;29;20130;-73
2022/07/27 06:39:17;;;;;;;5.60;0.88;;;20.30;60.50;;;;;;4846538;29;20054;-72
2022/07/27 06:41:43;;;;;;;6.38;0.90;;;20.30;59.80;;;;;;4846401;29;20134;-72
2022/07/27 06:44:09;;;;;;;3.20;0.70;;;20.30;59.40;;;;;;4846866;29;20066;-73
2022/07/27 06:46:35;;;;;;;4.03;0.70;;;20.30;58.90;;;;;;4846405;29;20248;-72
2022/07/27 06:49:00;;;;;;;4.47;0.60;;;20.30;58.80;;;;;;4846322;29;20046;-72
2022/07/27 06:51:26;;;;;;;3.15;0.40;;;20.30;58.60;;;;;;4850455;29;20449;-72
2022/07/27 06:53:53;;;;;;;3.85;0.80;;;20.30;58.40;;;;;;4864790;29;20120;-72
2022/07/27 06:56:19;;;;;;;2.35;0.40;;;20.30;58.10;;;;;;4860118;29;20050;-72
2022/07/27 06:58:45;;;;;;;4.07;0.77;;;20.30;58.00;;;;;;4853188;29;20126;-72
2022/07/27 07:01:12;;;;;;;2.88;0.75;;;20.30;58.00;;;;;;4832582;29;20159;-72
2022/07/27 07:03:38;;;;;;;3.72;0.80;;;20.30;58.10;;;;;;4857241;29;20089;-73
2022/07/27 07:06:04;;;;;;;3.47;0.57;;;20.30;58.40;;;;;;4853521;29;20069;-72
2022/07/27 07:08:29;;;;;;;8.75;1.48;;;20.30;58.50;;;;;;4864337;29;20129;-72
2022/07/27 07:10:56;;;;;;;2.80;0.73;;;20.30;58.80;;;;;;4847343;29;20133;-73
2022/07/27 07:13:22;;;;;;;3.88;0.60;;;20.30;58.80;;;;;;4845918;29;20123;-73
2022/07/27 07:15:48;;;;;;;3.35;0.52;;;20.30;58.70;;;;;;4845963;29;20077;-73
2022/07/27 07:18:14;;;;;;;3.35;0.43;;;20.30;58.30;;;;;;4845831;29;20058;-72
2022/07/27 07:20:40;;;;;;;5.65;0.50;;;20.20;59.00;;;;;;4859673;29;20045;-73
2022/07/27 07:23:06;;;;;;;3.35;0.52;;;20.20;58.30;;;;;;4864632;29;20379;-73
2022/07/27 07:25:33;;;;;;;1.65;0.63;;;20.10;58.00;;;;;;4864160;29;20045;-73
2022/07/27 07:27:59;;;;;;;2.85;0.40;;;20.10;58.00;;;;;;4861441;29;20055;-72
2022/07/27 07:30:25;;;;;;;3.83;0.52;;;20.10;57.90;;;;;;4852498;29;20133;-72
2022/07/27 07:32:51;;;;;;;2.45;0.60;;;20.10;58.30;;;;;;4845374;29;20217;-72
2022/07/27 07:35:17;;;;;;;6.22;1.23;;;20.00;58.60;;;;;;4850622;29;20053;-72
2022/07/27 07:37:43;;;;;;;5.80;0.80;;;20.00;59.10;;;;;;4863749;29;20049;-71
2022/07/27 07:40:09;;;;;;;9.82;1.08;;;20.00;59.30;;;;;;4861328;29;20053;-72
2022/07/27 07:42:56;;;;;;;7.10;0.80;;;20.00;59.70;;;;;;4862793;29;20137;-73
2022/07/27 07:45:23;;;;;;;4.28;0.52;;;20.00;60.20;;;;;;4845845;29;20362;-73
2022/07/27 07:47:50;;;;;;;4.85;0.68;;;20.00;60.40;;;;;;4846796;29;20053;-73
2022/07/27 07:50:16;;;;;;;2.83;0.70;;;20.10;60.50;;;;;;4855888;29;20467;-73
2022/07/27 07:52:42;;;;;;;3.50;0.85;;;20.10;60.60;;;;;;4863278;29;20055;-73
2022/07/27 07:55:08;;;;;;;2.45;0.68;;;20.10;60.70;;;;;;4863833;29;20058;-73
2022/07/27 07:57:35;;;;;;;2.53;0.68;;;20.20;60.70;;;;;;4863379;29;20064;-73
2022/07/27 08:00:01;;;;;;;5.53;0.98;;;20.30;61.00;;;;;;4859994;29;20141;-72
2022/07/27 08:02:27;;;;;;;9.32;0.93;;;20.30;61.00;;;;;;4850701;29;20046;-76
2022/07/27 08:04:52;;;;;;;24.77;2.72;;;20.30;61.20;;;;;;4829010;29;20492;-76
2022/07/27 08:07:18;;;;;;;21.55;2.75;;;20.30;61.30;;;;;;4845019;29;20073;-73
2022/07/27 08:09:44;;;;;;;19.75;2.67;;;20.30;61.30;;;;;;4844833;29;20042;-76
2022/07/27 08:12:10;;;;;;;12.02;1.30;;;20.40;61.70;;;;;;4854288;29;20045;-75
2022/07/27 08:14:35;;;;;;;6.32;1.38;;;20.40;61.70;;;;;;4863162;29;20491;-75
2022/07/27 08:17:01;;;;;;;15.60;1.70;;;20.40;60.90;;;;;;4863825;29;20140;-78
2022/07/27 08:19:27;;;;;;;7.22;1.10;;;20.40;60.60;;;;;;4863058;29;20109;-77
2022/07/27 08:21:52;;;;;;;8.73;1.05;;;20.40;60.40;;;;;;4855924;29;20061;-75
2022/07/27 08:24:19;;;;;;;8.65;0.95;;;20.40;60.40;;;;;;4844629;29;20065;-76
2022/07/27 08:26:45;;;;;;;13.95;1.38;;;20.40;60.40;;;;;;4845522;29;20061;-77
2022/07/27 08:29:11;;;;;;;7.85;0.98;;;20.40;60.70;;;;;;4856035;29;20053;-75
2022/07/27 08:31:36;;;;;;;8.68;1.25;;;20.40;60.90;;;;;;4855810;29;20118;-75
2022/07/27 08:34:02;;;;;;;5.78;0.98;;;20.40;61.00;;;;;;4862963;29;20089;-76
2022/07/27 08:36:28;;;;;;;7.15;0.85;;;20.50;61.20;;;;;;4859361;29;20127;-75
2022/07/27 08:38:53;;;;;;;5.40;0.85;;;20.50;60.90;;;;;;4847982;29;20054;-75
2022/07/27 08:41:21;;;;;;;8.27;1.25;;;20.50;60.80;;;;;;4852470;29;20049;-75
2022/07/27 08:43:47;;;;;;;7.75;1.05;;;20.50;60.70;;;;;;4844409;29;20053;-78
2022/07/27 08:46:17;;;;;;;13.55;1.33;;;20.50;60.90;;;;;;4828382;29;20061;-74
2022/07/27 08:48:43;;;;;;;13.60;1.38;;;20.60;61.30;;;;;;4850714;29;20266;-73
2022/07/27 08:51:10;;;;;;;16.65;1.63;;;20.50;61.60;;;;;;4855945;29;20427;-75
2022/07/27 08:53:36;;;;;;;6.95;1.05;;;20.60;61.20;;;;;;4843252;29;20042;-75
2022/07/27 08:56:03;;;;;;;6.95;1.10;;;20.60;61.20;;;;;;4844100;29;20572;-73
2022/07/27 08:58:29;;;;;;;7.05;1.02;;;20.60;61.30;;;;;;4844705;29;20438;-75
2022/07/27 09:00:55;;;;;;;8.70;1.45;;;20.60;61.50;;;;;;4847688;29;20050;-74
2022/07/27 09:03:22;;;;;;;11.35;1.45;;;20.60;61.60;;;;;;4846363;29;20053;-75
2022/07/27 09:05:50;;;;;;;4.55;0.70;;;20.70;61.80;;;;;;4862652;29;20053;-73
2022/07/27 09:08:23;;;;;;;9.93;0.95;;;20.70;61.80;;;;;;4862345;29;20140;-75
2022/07/27 09:10:49;;;;;;;6.30;1.15;;;20.70;61.90;;;;;;4859909;29;20056;-74
2022/07/27 09:13:16;;;;;;;6.68;1.20;;;20.70;61.80;;;;;;4844258;29;20442;-74
2022/07/27 09:15:46;;;;;;;14.07;1.50;;;20.70;62.50;;;;;;4844061;29;20046;-73
2022/07/27 09:18:27;;;;;;;6.30;0.88;;;20.70;61.80;;;;;;4844176;29;20054;-74
2022/07/27 09:21:13;;;;;;;7.07;0.95;;;20.70;61.80;;;;;;4846445;29;20113;-74
2022/07/27 09:23:40;;;;;;;5.47;0.70;;;20.70;61.80;;;;;;4862733;29;20054;-74
2022/07/27 09:26:27;;;;;;;6.45;0.77;;;20.70;62.00;;;;;;4862756;29;20051;-76
2022/07/27 09:28:57;;;;;;;6.43;0.80;;;20.70;62.00;;;;;;4862755;29;20065;-74
2022/07/27 09:31:24;;;;;;;2.05;0.63;;;20.70;62.20;;;;;;4856514;29;20053;-74
2022/07/27 09:33:52;;;;;;;4.88;0.93;;;20.70;62.20;;;;;;4828022;29;20054;-73
2022/07/27 09:36:21;;;;;;;7.30;1.10;;;20.80;62.30;;;;;;4861845;29;20524;-74
2022/07/27 09:39:02;;;;;;;5.40;1.05;;;20.80;62.30;;;;;;4862828;29;20381;-75
2022/07/27 09:41:49;;;;;;;5.88;1.15;;;20.80;62.40;;;;;;4856016;29;20458;-75
2022/07/27 09:44:16;;;;;;;5.20;0.98;;;20.80;62.40;;;;;;4824687;29;20140;-76
2022/07/27 09:46:45;;;;;;;4.78;0.90;;;20.70;62.40;;;;;;4828220;29;20078;-75
2022/07/27 09:49:31;;;;;;;4.28;1.00;;;20.70;62.30;;;;;;4844090;29;20054;-75
2022/07/27 09:51:58;;;;;;;4.50;0.95;;;20.80;62.20;;;;;;4852791;29;20418;-74
2022/07/27 09:54:24;;;;;;;4.78;1.15;;;20.80;62.20;;;;;;4861989;29;20053;-75
2022/07/27 09:57:01;;;;;;;4.55;1.20;;;20.80;62.20;;;;;;4862389;29;20053;-75
2022/07/27 09:59:28;;;;;;;5.68;1.35;;;20.80;62.30;;;;;;4848275;29;20100;-75
2022/07/27 10:01:55;;;;;;;4.85;1.25;;;20.80;62.40;;;;;;4855559;29;20069;-74
2022/07/27 10:04:21;;;;;;;2.97;1.30;;;20.80;62.40;;;;;;4847867;29;20117;-75
2022/07/27 10:06:47;;;;;;;4.18;0.65;;;20.80;62.30;;;;;;4847278;29;20050;-72
2022/07/27 10:09:13;;;;;;;3.47;0.68;;;20.80;62.30;;;;;;4831069;29;20454;-74
2022/07/27 10:11:39;;;;;;;2.65;0.90;;;20.80;62.10;;;;;;4852236;29;20041;-75
2022/07/27 10:14:06;;;;;;;5.03;0.98;;;20.80;62.20;;;;;;4864701;29;20057;-73
2022/07/27 10:16:33;;;;;;;5.65;0.98;;;20.90;62.40;;;;;;4865773;29;20053;-73
2022/07/27 10:19:09;;;;;;;4.35;1.13;;;20.90;62.50;;;;;;4865327;29;20492;-75
2022/07/27 10:21:37;;;;;;;4.38;0.85;;;20.90;62.50;;;;;;4860149;29;20469;-74
2022/07/27 10:24:08;;;;;;;3.83;0.98;;;20.90;62.50;;;;;;4846834;29;20053;-75
2022/07/27 10:26:35;;;;;;;2.97;0.70;;;20.90;62.60;;;;;;4846884;29;20377;-74
2022/07/27 10:29:05;;;;;;;3.35;0.77;;;20.90;62.60;;;;;;4856651;29;20062;-75
2022/07/27 10:31:33;;;;;;;3.92;1.02;;;20.90;62.70;;;;;;4860812;29;20053;-73
2022/07/27 10:34:01;;;;;;;3.88;1.23;;;20.90;62.80;;;;;;4864842;29;20085;-75
2022/07/27 10:36:30;;;;;;;3.00;0.93;;;20.90;62.80;;;;;;4865886;29;20105;-75
2022/07/27 10:38:58;;;;;;;2.58;0.57;;;21.00;62.90;;;;;;4865327;29;20050;-75
2022/07/27 10:41:28;;;;;;;2.25;0.70;;;21.00;62.90;;;;;;4861523;29;20054;-74
2022/07/27 10:44:24;;;;;;;2.80;0.60;;;21.00;62.90;;;;;;4845747;29;20473;-75
2022/07/27 10:47:02;;;;;;;1.80;0.70;;;21.00;62.80;;;;;;4846789;29;20057;-75
2022/07/27 10:49:33;;;;;;;3.55;0.90;;;21.00;62.80;;;;;;4846642;29;20129;-73
2022/07/27 10:52:00;;;;;;;2.90;0.90;;;21.00;62.80;;;;;;4853336;29;20153;-74
2022/07/27 10:54:38;;;;;;;3.55;0.90;;;21.00;62.90;;;;;;4865279;29;20041;-74
2022/07/27 10:57:08;;;;;;;2.75;0.85;;;21.00;62.70;;;;;;4864808;29;20057;-75
2022/07/27 10:59:41;;;;;;;4.55;0.80;;;21.00;62.80;;;;;;4864839;29;20058;-75
2022/07/27 11:02:12;;;;;;;3.53;0.95;;;21.00;62.90;;;;;;4856124;29;20465;-75
2022/07/27 11:04:50;;;;;;;4.00;0.90;;;21.00;62.90;;;;;;4846340;29;20053;-76
2022/07/27 11:07:18;;;;;;;3.00;0.50;;;21.00;62.40;;;;;;4846098;29;20401;-75
2022/07/27 11:09:46;;;;;;;1.95;0.60;;;21.00;62.30;;;;;;4844874;29;20376;-75
2022/07/27 11:12:12;;;;;;;2.88;0.65;;;21.00;62.00;;;;;;4852563;29;20125;-75
2022/07/27 11:14:59;;;;;;;2.42;0.50;;;21.00;62.10;;;;;;4864202;29;20136;-75
2022/07/27 11:17:28;;;;;;;3.95;0.90;;;21.00;61.20;;;;;;4864364;29;20045;-76
2022/07/27 11:20:00;;;;;;;1.48;0.50;;;21.00;61.30;;;;;;4864568;29;20102;-76
2022/07/27 11:22:29;;;;;;;3.05;0.60;;;21.00;61.20;;;;;;4855189;29;20058;-75
2022/07/27 11:24:55;;;;;;;1.77;0.45;;;21.00;61.40;;;;;;4845993;29;20091;-75
2022/07/27 11:27:26;;;;;;;2.88;0.60;;;21.00;61.20;;;;;;4829757;29;20112;-78
2022/07/27 11:29:54;;;;;;;;;;;21.00;61.20;;;;;;4860820;29;20156;-76
2022/07/27 11:32:21;;;;;;;3.38;0.80;;;21.00;61.20;;;;;;4840259;29;20403;-77
2022/07/27 11:34:47;;;;;;;3.80;0.60;;;21.00;61.50;;;;;;4845405;29;20525;-75
2022/07/27 11:37:18;;;;;;;4.53;0.55;;;21.00;61.20;;;;;;4845867;29;20089;-75
2022/07/27 11:39:45;;;;;;;6.40;1.00;;;21.00;61.30;;;;;;4829892;29;20494;-74
2022/07/27 11:42:12;;;;;;;4.50;0.50;;;21.00;61.40;;;;;;4851685;29;20057;-75
2022/07/27 11:44:41;;;;;;;7.10;1.17;;;21.00;61.30;;;;;;4863734;29;20353;-74
2022/07/27 11:47:07;;;;;;;6.72;0.60;;;21.00;61.30;;;;;;4864590;29;20349;-75
2022/07/27 11:49:33;;;;;;;5.93;0.60;;;21.00;61.00;;;;;;4862442;29;20125;-75
2022/07/27 11:52:05;;;;;;;6.10;0.63;;;21.00;60.90;;;;;;4858794;29;20470;-74
2022/07/27 11:54:34;;;;;;;4.68;0.60;;;21.00;60.80;;;;;;4844962;29;20132;-75
2022/07/27 11:57:08;;;;;;;5.53;0.75;;;21.00;61.10;;;;;;4844845;29;20462;-74
2022/07/27 11:59:37;;;;;;;4.15;0.77;;;21.00;61.10;;;;;;4845139;29;20342;-76
2022/07/27 13:09:16;;;;;;;21.00;1.25;;;21.30;60.50;;;;;;4806075;29;20062;-75
2022/07/27 13:11:42;;;;;;;13.18;1.35;;;21.30;60.60;;;;;;4825590;29;20054;-74
2022/07/27 13:14:08;;;;;;;11.52;1.52;;;21.30;60.50;;;;;;4826092;29;20053;-74
2022/07/27 13:16:33;;;;;;;10.57;1.00;;;21.30;60.00;;;;;;4825562;29;20054;-74
2022/07/27 13:18:59;;;;;;;8.43;0.70;;;21.30;59.20;;;;;;4825464;29;20351;-74
2022/07/27 13:21:25;;;;;;;8.18;1.10;;;21.20;58.90;;;;;;4825726;29;20073;-74
2022/07/27 13:23:50;;;;;;;4.72;0.88;;;21.20;59.00;;;;;;4826221;29;20336;-72
2022/07/27 13:26:16;;;;;;;10.02;0.90;;;21.20;58.80;;;;;;4825624;29;20443;-72
2022/07/27 13:28:42;;;;;;;8.05;1.02;;;21.20;58.60;;;;;;4825483;29;20053;-72
2022/07/27 13:31:08;;;;;;;8.10;0.80;;;21.20;58.70;;;;;;4825711;29;20435;-72
2022/07/27 13:33:33;;;;;;;4.68;0.75;;;21.20;58.90;;;;;;4826759;29;20086;-72
2022/07/27 13:35:59;;;;;;;7.70;1.27;;;21.20;58.70;;;;;;4829434;29;20137;-72
2022/07/27 13:38:25;;;;;;;5.80;0.77;;;21.20;58.90;;;;;;4829045;29;20139;-71
2022/07/27 13:40:50;;;;;;;9.80;1.02;;;21.20;58.10;;;;;;4828960;29;20053;-73
2022/07/27 13:43:18;;;;;;;8.15;1.13;;;21.20;57.80;;;;;;4829163;29;20388;-76
2022/07/27 13:45:43;;;;;;;6.15;0.90;;;21.20;58.50;;;;;;4828610;29;20129;-76
2022/07/27 13:48:10;;;;;;;11.48;1.33;;;21.20;58.70;;;;;;4828020;29;20062;-76
2022/07/27 13:50:37;;;;;;;6.32;1.13;;;21.20;58.90;;;;;;4810878;29;20170;-75
2022/07/27 13:53:03;;;;;;;5.13;0.70;;;21.20;58.90;;;;;;4817233;29;20050;-77
2022/07/27 13:55:29;;;;;;;6.47;0.75;;;21.20;58.30;;;;;;4829537;29;20054;-73
2022/07/27 13:57:54;;;;;;;13.63;1.00;;;21.20;57.70;;;;;;4828550;29;20443;-72
2022/07/27 14:00:20;;;;;;;6.95;0.90;;;21.10;57.70;;;;;;4828784;29;20050;-72
2022/07/27 14:02:46;;;;;;;5.55;0.60;;;21.10;57.90;;;;;;4828800;29;20099;-73
2022/07/27 17:30:25;;;;;;;2.42;0.20;;;21.50;54.20;;;;;;4815852;29;20054;-70
2022/07/27 17:32:52;;;;;;;2.30;0.20;;;21.50;53.50;;;;;;4843117;29;20057;-71
2022/07/27 17:35:17;;;;;;;1.67;0.28;;;21.40;53.30;;;;;;4841539;29;20362;-71
2022/07/27 18:24:22;;;;;;;6.10;0.50;;;20.90;54.30;;;;;;4860228;29;20421;-72
2022/07/27 18:26:53;;;;;;;4.18;0.60;;;20.90;54.60;;;;;;4864541;29;20038;-70
2022/07/27 18:29:19;;;;;;;5.68;0.50;;;20.80;54.40;;;;;;4865278;29;20457;-70
2022/07/27 18:31:45;;;;;;;4.45;0.77;;;20.90;54.70;;;;;;4865957;29;20060;-70
2022/07/27 18:34:11;;;;;;;2.30;0.60;;;20.80;55.00;;;;;;4864714;29;20057;-70
2022/07/27 18:36:37;;;;;;;4.25;0.60;;;20.90;55.10;;;;;;4864682;29;20063;-71
2022/07/27 18:39:03;;;;;;;4.50;0.60;;;20.90;55.20;;;;;;4864965;29;20049;-70
2022/07/27 18:41:29;;;;;;;7.03;0.80;;;20.90;55.50;;;;;;4849202;29;20097;-70
2022/07/27 18:43:55;;;;;;;4.43;1.00;;;20.90;55.40;;;;;;4865030;29;20056;-70
2022/07/27 18:46:22;;;;;;;5.85;0.57;;;21.00;55.40;;;;;;4860351;29;20053;-71
2022/07/27 18:48:48;;;;;;;3.67;0.47;;;21.00;55.50;;;;;;4864755;29;20046;-70
2022/07/27 18:51:15;;;;;;;2.92;0.50;;;21.00;55.60;;;;;;4864936;29;20098;-70
2022/07/27 18:53:42;;;;;;;2.10;0.35;;;21.00;55.80;;;;;;4865291;29;20061;-71
2022/07/27 18:56:09;;;;;;;3.75;0.80;;;21.00;56.00;;;;;;4864571;29;20073;-70
2022/07/27 18:58:35;;;;;;;2.95;0.50;;;21.00;56.10;;;;;;4864895;29;20033;-70
2022/07/27 19:01:01;;;;;;;3.28;0.60;;;21.00;56.30;;;;;;4864771;29;20061;-70
2022/07/27 19:03:27;;;;;;;5.85;0.73;;;21.00;56.20;;;;;;4864745;29;20128;-71
2022/07/27 19:05:53;;;;;;;4.22;0.57;;;21.00;56.30;;;;;;4862683;29;20060;-71
2022/07/27 19:08:19;;;;;;;3.95;0.93;;;21.00;56.40;;;;;;4864585;29;20054;-70
2022/07/27 19:10:47;;;;;;;1.75;0.30;;;21.00;56.50;;;;;;4865104;29;20049;-71
2022/07/27 19:13:13;;;;;;;3.63;0.75;;;21.00;56.60;;;;;;4864164;29;20050;-71
2022/07/27 19:15:39;;;;;;;3.47;0.50;;;21.00;56.80;;;;;;4848152;29;20060;-70
2022/07/27 19:18:05;;;;;;;2.70;0.30;;;21.00;57.00;;;;;;4864187;29;20045;-71
2022/07/27 19:20:35;;;;;;;4.57;0.60;;;21.00;57.10;;;;;;4864361;29;20049;-75
2022/07/27 19:23:03;;;;;;;3.72;0.60;;;21.00;57.20;;;;;;4847247;29;20071;-75
2022/07/27 19:25:29;;;;;;;2.90;0.65;;;21.00;57.10;;;;;;4861580;29;20061;-71
2022/07/27 19:27:55;;;;;;;2.47;0.70;;;21.10;56.60;;;;;;4863876;29;20057;-71
2022/07/27 19:30:21;;;;;;;3.80;0.50;;;21.00;56.00;;;;;;4864159;29;20046;-73
2022/07/27 19:32:46;;;;;;;5.65;0.75;;;20.80;55.90;;;;;;4863854;29;20061;-75
2022/07/27 19:35:12;;;;;;;10.05;1.25;;;20.70;55.80;;;;;;4863647;29;20053;-75
2022/07/27 20:02:01;;;;;;;6.47;0.90;;;20.60;58.20;;;;;;5596223;23;20058;-71
2022/07/27 20:04:26;;;;;;;1.67;0.43;;;20.70;56.80;;;;;;4844673;29;20093;-71
2022/07/27 20:06:52;;;;;;;4.50;0.40;;;20.60;56.10;;;;;;4843798;29;20081;-74
2022/07/27 20:09:18;;;;;;;3.35;0.28;;;20.40;56.00;;;;;;4845371;29;20124;-74
2022/07/27 20:11:44;;;;;;;3.40;0.45;;;20.30;56.00;;;;;;4845368;29;20450;-74
2022/07/27 20:14:09;;;;;;;2.40;0.43;;;20.20;55.80;;;;;;4845361;29;20133;-74
2022/07/27 20:16:39;;;;;;;3.78;0.55;;;20.00;55.90;;;;;;4845230;29;20136;-73
2022/07/27 20:19:04;;;;;;;4.53;0.40;;;20.00;56.00;;;;;;4844705;29;20054;-71
2022/07/27 20:21:35;;;;;;;11.50;0.93;;;19.90;56.40;;;;;;4843904;29;20358;-70
2022/07/27 20:24:02;;;;;;;23.83;1.80;;;19.80;56.70;;;;;;4844207;29;20529;-71
2022/07/27 20:26:28;;;;;;;8.32;0.95;;;19.80;57.20;;;;;;4844639;29;20065;-70
2022/07/27 20:28:58;;;;;;;5.45;0.65;;;19.90;57.70;;;;;;4844559;29;20461;-70
2022/07/27 20:31:24;;;;;;;16.00;1.45;;;19.90;57.60;;;;;;4829216;29;20433;-74
2022/07/27 20:33:50;;;;;;;7.30;0.50;;;19.90;57.70;;;;;;4843878;29;20053;-71
2022/07/27 20:36:16;;;;;;;4.60;0.70;;;19.90;58.20;;;;;;4844378;29;20209;-71
2022/07/27 20:38:42;;;;;;;7.97;0.65;;;20.00;58.50;;;;;;4844340;29;20057;-70
2022/07/27 20:41:08;;;;;;;3.38;0.45;;;20.00;58.10;;;;;;4844825;29;20056;-71
2022/07/27 20:43:33;;;;;;;5.10;0.50;;;20.00;58.00;;;;;;4843656;29;20054;-71
2022/07/27 20:45:59;;;;;;;3.53;0.40;;;20.00;58.00;;;;;;4844818;29;20357;-71
2022/07/27 20:48:25;;;;;;;2.25;0.30;;;20.00;58.00;;;;;;4844236;29;20434;-71
2022/07/27 20:50:51;;;;;;;6.50;0.73;;;20.10;58.00;;;;;;4828458;29;20054;-71
2022/07/27 20:53:18;;;;;;;4.80;0.57;;;20.10;57.90;;;;;;4828381;29;20121;-72
2022/07/27 20:55:45;;;;;;;3.05;0.52;;;20.20;58.00;;;;;;4844408;29;20136;-75
2022/07/27 20:58:11;;;;;;;2.83;0.32;;;20.20;58.00;;;;;;4844524;29;20100;-71
2022/07/27 21:00:37;;;;;;;1.45;0.43;;;20.20;58.10;;;;;;4844686;29;20090;-72
2022/07/27 21:03:03;;;;;;;1.70;0.32;;;20.30;58.10;;;;;;4853047;29;20480;-74
2022/07/27 21:05:29;;;;;;;2.17;0.32;;;20.30;58.20;;;;;;4862682;29;20057;-71
2022/07/27 21:07:56;;;;;;;3.38;0.65;;;20.30;58.10;;;;;;4862734;29;20471;-74
2022/07/27 21:10:22;;;;;;;3.33;0.35;;;20.30;58.20;;;;;;4862724;29;20041;-73
2022/07/27 21:12:49;;;;;;;2.50;0.40;;;20.30;58.30;;;;;;4863386;29;20413;-72
2022/07/27 21:15:15;;;;;;;1.48;0.32;;;20.30;58.10;;;;;;4862480;29;20086;-71
2022/07/27 21:17:41;;;;;;;2.03;0.40;;;20.30;58.10;;;;;;4863133;29;20053;-70
2022/07/27 21:20:07;;;;;;;1.90;0.40;;;20.40;58.40;;;;;;4862923;29;20431;-71
2022/07/27 21:22:33;;;;;;;1.13;0.20;;;20.30;58.30;;;;;;4862547;29;20453;-70
2022/07/27 21:24:59;;;;;;;3.88;0.47;;;20.30;58.30;;;;;;4862608;29;20046;-72
2022/07/27 21:27:25;;;;;;;3.70;0.50;;;20.30;58.50;;;;;;4862728;29;20050;-70
2022/07/27 21:29:53;;;;;;;3.85;0.80;;;20.30;58.70;;;;;;4862123;29;20533;-68
2022/07/27 21:32:18;;;;;;;3.03;0.60;;;20.30;59.00;;;;;;4862120;29;20065;-73
2022/07/27 21:34:44;;;;;;;4.93;0.75;;;20.30;59.10;;;;;;4862052;29;20037;-71
2022/07/27 21:37:12;;;;;;;2.33;0.40;;;20.30;59.30;;;;;;4862638;29;20393;-70
2022/07/27 21:39:38;;;;;;;5.53;0.90;;;20.30;59.50;;;;;;4862254;29;20045;-72
2022/07/27 21:42:04;;;;;;;5.07;0.63;;;20.20;59.90;;;;;;4862301;29;20380;-72
2022/07/27 21:44:30;;;;;;;2.83;0.60;;;20.20;59.90;;;;;;4862139;29;20057;-72
2022/07/27 21:46:56;;;;;;;1.73;0.32;;;20.20;60.00;;;;;;4862558;29;20451;-73
2022/07/27 21:49:22;;;;;;;2.97;0.52;;;20.20;60.10;;;;;;4862122;29;20129;-72
